Time;durP1;ratioP1;P1;durP2;ratioP2;P2;SDS_P1;SDS_P2;PMS_P1;PMS_P2;Temp;Humidity;BMP_temperature;BMP_pressure;BME280_temperature;BME280_humidity;BME280_pressure;Samples;Min_cycle;Max_cycle;Signal;HPM_P1;HPM_P2
2023/02/14 05:40:04;;;;;;;;;108.00;88.33;;;;;3.64;100.00;103096.28;5317015;23;49734;-70
2023/02/14 05:42:29;;;;;;;;;103.67;85.00;;;;;3.71;100.00;103111.63;4914500;28;51245;-73
2023/02/14 05:44:55;;;;;;;;;105.67;88.67;;;;;3.58;100.00;103106.16;4914182;28;50034;-75
2023/02/14 05:47:20;;;;;;;;;98.67;84.00;;;;;3.88;100.00;103138.16;4910559;28;49912;-68
2023/02/14 05:49:49;;;;;;;;;101.33;79.67;;;;;3.60;100.00;103098.50;4908347;28;49880;-74
2023/02/14 05:52:14;;;;;;;;;101.33;84.00;;;;;3.60;100.00;103096.81;4902907;28;49898;-71
2023/02/14 05:54:40;;;;;;;;;99.33;80.67;;;;;3.59;100.00;103102.78;4908399;28;50107;-74
2023/02/14 05:57:06;;;;;;;;;96.00;78.00;;;;;3.88;100.00;103171.94;4907168;28;49732;-72
2023/02/14 05:59:31;;;;;;;;;99.67;82.00;;;;;3.66;100.00;103117.19;4904731;28;49581;-72
2023/02/14 06:01:57;;;;;;;;;99.00;77.67;;;;;3.87;100.00;103172.72;4907810;28;49969;-72
2023/02/14 06:04:22;;;;;;;;;97.00;75.33;;;;;2.78;100.00;102954.66;4903717;28;49830;-71
2023/02/14 06:06:48;;;;;;;;;100.67;82.00;;;;;3.11;100.00;103031.94;4925181;28;49947;-72
2023/02/14 06:09:17;;;;;;;;;93.67;72.00;;;;;3.70;100.00;103134.88;4917507;28;49811;-72
2023/02/14 06:11:42;;;;;;;;;102.67;80.33;;;;;2.80;100.00;103016.31;4922881;28;50665;-71
2023/02/14 06:14:08;;;;;;;;;102.00;83.33;;;;;3.72;100.00;103187.88;4915904;28;49734;-72
2023/02/14 06:16:33;;;;;;;;;105.33;81.00;;;;;3.52;100.00;103141.97;4924905;28;49933;-65
2023/02/14 06:18:58;;;;;;;;;103.00;82.67;;;;;2.33;100.00;102923.97;4916345;28;50565;-71
2023/02/14 06:21:24;;;;;;;;;98.00;77.00;;;;;3.80;100.00;103183.34;4926269;28;50187;-71
2023/02/14 06:23:49;;;;;;;;;59.33;46.33;;;;;3.80;100.00;103176.47;4913568;28;49661;-71
2023/02/14 06:26:15;;;;;;;;;103.67;80.33;;;;;3.45;100.00;103109.38;4914304;28;49802;-66
2023/02/14 06:28:41;;;;;;;;;97.67;73.00;;;;;3.66;100.00;103136.28;4914421;28;49587;-64
2023/02/14 06:31:07;;;;;;;;;99.33;83.00;;;;;3.59;100.00;103133.03;4913936;28;50852;-64
2023/02/14 06:33:32;;;;;;;;;103.33;78.67;;;;;3.11;100.00;103035.44;4912689;28;49846;-64
2023/02/14 06:35:57;;;;;;;;;97.00;70.67;;;;;3.33;100.00;103077.16;4909132;28;50273;-66
2023/02/14 06:38:23;;;;;;;;;93.33;72.00;;;;;2.98;100.00;103008.28;4913486;28;50384;-65
2023/02/14 06:40:48;;;;;;;;;104.33;85.00;;;;;3.73;100.00;103158.50;4913524;28;49892;-65
2023/02/14 06:43:14;;;;;;;;;100.67;79.67;;;;;3.31;100.00;103072.63;4913596;28;49686;-65
2023/02/14 06:45:42;;;;;;;;;105.00;83.67;;;;;3.71;100.00;103152.28;4913746;28;49668;-65
2023/02/14 06:48:08;;;;;;;;;99.33;80.33;;;;;3.16;100.00;103047.13;4913973;28;49914;-64
2023/02/14 06:50:34;;;;;;;;;98.67;78.00;;;;;3.36;100.00;103092.97;4913653;28;49822;-65
2023/02/14 06:53:00;;;;;;;;;92.33;71.67;;;;;3.09;100.00;103060.38;4913112;28;49600;-65
2023/02/14 06:55:25;;;;;;;;;97.33;72.33;;;;;3.37;100.00;103096.50;4913796;28;50070;-65
2023/02/14 06:57:50;;;;;;;;;98.67;75.00;;;;;3.34;100.00;103096.22;4912678;28;49913;-65
2023/02/14 07:00:16;;;;;;;;;97.00;77.00;;;;;3.48;100.00;103131.22;4912448;28;50014;-65
2023/02/14 07:02:42;;;;;;;;;93.33;72.00;;;;;2.97;100.00;103045.38;4913639;28;50144;-65
2023/02/14 07:05:07;;;;;;;;;96.33;68.33;;;;;3.31;100.00;103086.50;4913580;28;49591;-63
2023/02/14 07:07:33;;;;;;;;;102.33;83.33;;;;;3.61;100.00;103149.66;4913606;28;50027;-65
2023/02/14 07:09:58;;;;;;;;;106.00;85.67;;;;;3.49;100.00;103138.22;4913365;28;51415;-66
2023/02/14 07:12:23;;;;;;;;;104.67;89.67;;;;;3.50;100.00;103143.53;4913568;28;49794;-66
2023/02/14 07:14:49;;;;;;;;;110.00;95.00;;;;;3.35;100.00;103116.22;4913731;28;49999;-66
2023/02/14 07:17:14;;;;;;;;;107.67;92.00;;;;;3.54;100.00;103152.50;4906130;28;49754;-66
2023/02/14 07:19:40;;;;;;;;;107.67;97.33;;;;;3.64;100.00;103173.28;4913215;28;50813;-67
2023/02/14 07:22:05;;;;;;;;;103.67;88.67;;;;;3.45;100.00;103137.94;4911944;28;50002;-66
2023/02/14 07:24:30;;;;;;;;;102.00;84.33;;;;;3.63;100.00;103169.78;4913195;28;49806;-68
2023/02/14 07:26:56;;;;;;;;;103.25;89.75;;;;;3.58;100.00;103163.31;4913416;28;49755;-70
2023/02/14 07:29:21;;;;;;;;;122.00;101.25;;;;;3.60;100.00;103159.16;4913130;28;50088;-70
2023/02/14 07:31:46;;;;;;;;;116.00;103.50;;;;;3.79;100.00;103186.72;4913388;28;49841;-70
2023/02/14 07:34:12;;;;;;;;;112.50;95.75;;;;;3.28;100.00;103091.44;4913208;28;49898;-71
2023/02/14 07:36:40;;;;;;;;;116.75;100.75;;;;;3.60;100.00;103147.84;4913462;28;49926;-70
2023/02/14 07:39:06;;;;;;;;;118.75;101.50;;;;;3.37;100.00;103092.19;4912254;28;49722;-70
2023/02/14 07:41:31;;;;;;;;;114.75;97.00;;;;;3.77;100.00;103155.41;4913108;28;49789;-71
2023/02/14 07:43:56;;;;;;;;;116.75;100.75;;;;;3.47;100.00;103095.59;4913211;28;49588;-70
2023/02/14 07:46:22;;;;;;;;;110.50;100.00;;;;;3.55;100.00;103104.97;4913266;28;49582;-70
2023/02/14 07:48:47;;;;;;;;;116.25;100.25;;;;;3.63;100.00;103123.03;4911843;28;50496;-69
2023/02/14 07:51:13;;;;;;;;;119.00;102.00;;;;;3.60;100.00;103120.19;4911555;28;49894;-69
2023/02/14 07:53:38;;;;;;;;;124.75;107.75;;;;;3.89;100.00;103161.66;4912699;28;49946;-69
2023/02/14 07:56:03;;;;;;;;;119.75;98.00;;;;;3.71;100.00;103123.69;4912481;28;50018;-69
2023/02/14 07:58:29;;;;;;;;;118.25;100.75;;;;;3.96;100.00;103174.41;4912744;28;50319;-69
2023/02/14 08:00:54;;;;;;;;;113.00;106.75;;;;;3.56;100.00;103099.91;4912858;28;49788;-69
2023/02/14 08:03:19;;;;;;;;;122.25;106.25;;;;;3.92;100.00;103154.13;4912872;28;49771;-71
2023/02/14 08:05:56;;;;;;;;;115.50;107.75;;;;;4.05;100.00;103169.06;4906801;28;50242;-68
2023/02/14 08:08:27;;;;;;;;;114.50;108.25;;;;;3.96;100.00;103150.09;4907068;28;49956;-69
2023/02/14 08:10:52;;;;;;;;;125.00;105.50;;;;;3.84;100.00;103110.97;4912635;28;50389;-69
2023/02/14 08:13:18;;;;;;;;;105.75;98.50;;;;;4.16;100.00;103159.59;4915689;28;50024;-69
2023/02/14 08:18:27;;;;;;;;;117.50;106.50;;;;;3.96;100.00;103109.44;4915819;28;49815;-69
2023/02/14 08:20:53;;;;;;;;;110.75;99.75;;;;;4.31;100.00;103153.97;4916002;28;49689;-69
2023/02/14 08:23:20;;;;;;;;;118.50;96.25;;;;;4.37;100.00;103164.00;4915732;28;49771;-69
2023/02/14 08:25:48;;;;;;;;;115.50;106.50;;;;;4.18;100.00;103119.94;4916480;28;49801;-69
2023/02/14 08:28:13;;;;;;;;;91.25;68.75;;;;;4.40;100.00;103142.53;4914470;28;52485;-70
2023/02/14 08:30:39;;;;;;;;;115.00;105.75;;;;;4.34;100.00;103127.31;4914501;28;49772;-71
2023/02/14 08:33:05;;;;;;;;;116.25;106.75;;;;;4.57;100.00;103166.56;4915724;28;49817;-69
2023/02/14 08:35:31;;;;;;;;;116.50;102.75;;;;;4.28;100.00;103104.34;4914731;28;49704;-69
2023/02/14 08:37:56;;;;;;;;;120.50;105.00;;;;;4.47;100.00;103137.06;4915342;28;50207;-69
2023/02/14 08:40:22;;;;;;;;;120.25;101.75;;;;;4.46;100.00;103128.38;4914458;28;49752;-70
2023/02/14 08:42:47;;;;;;;;;113.75;104.00;;;;;4.51;100.00;103126.13;4915804;28;49791;-70
2023/02/14 08:45:13;;;;;;;;;120.00;108.00;;;;;4.52;100.00;103115.84;4916133;28;49872;-70
2023/02/14 08:47:39;;;;;;;;;115.25;98.50;;;;;4.80;100.00;103163.25;4914103;28;51531;-69
2023/02/14 08:50:09;;;;;;;;;114.50;105.00;;;;;4.74;100.00;103125.44;4915631;28;50003;-69
2023/02/14 08:52:34;;;;;;;;;115.25;102.50;;;;;4.91;100.00;103160.63;4915266;28;49570;-70
2023/02/14 08:55:01;;;;;;;;;105.75;96.00;;;;;4.97;100.00;103153.34;4915748;28;49623;-70
2023/02/14 08:57:26;;;;;;;;;110.00;95.00;;;;;5.17;100.00;103172.38;4915370;28;50060;-70
2023/02/14 08:59:52;;;;;;;;;104.67;91.67;;;;;4.98;100.00;103114.41;4915581;28;49675;-69
2023/02/14 09:02:18;;;;;;;;;108.00;90.67;;;;;5.05;100.00;103123.63;4915243;28;49679;-68
2023/02/14 09:04:43;;;;;;;;;106.00;93.67;;;;;5.27;100.00;103134.06;4915739;28;50201;-69
2023/02/14 09:07:11;;;;;;;;;97.00;77.33;;;;;5.15;100.00;103101.06;4914939;28;51025;-69
2023/02/14 09:09:36;;;;;;;;;104.00;87.00;;;;;5.38;100.00;103135.81;4915424;28;50598;-73
2023/02/14 09:12:03;;;;;;;;;96.67;76.00;;;;;5.50;100.00;103139.41;4915414;28;49822;-70
2023/02/14 09:14:29;;;;;;;;;104.00;91.33;;;;;5.65;100.00;103153.63;4915384;28;49728;-71
2023/02/14 09:16:54;;;;;;;;;100.33;77.33;;;;;5.49;100.00;103116.72;4915111;28;49849;-69
2023/02/14 09:19:20;;;;;;;;;108.00;92.67;;;;;5.80;100.00;103155.66;4915395;28;49782;-69
2023/02/14 09:21:45;;;;;;;;;104.33;88.33;;;;;5.69;100.00;103128.72;4915480;28;49925;-69
2023/02/14 09:24:10;;;;;;;;;103.67;85.67;;;;;5.65;100.00;103111.94;4913803;28;49613;-69
2023/02/14 09:26:39;;;;;;;;;105.33;94.67;;;;;5.91;100.00;103145.28;4914975;28;49787;-69
2023/02/14 09:29:05;;;;;;;;;119.00;98.00;;;;;5.82;100.00;103113.25;4914875;28;49620;-69
2023/02/14 09:31:30;;;;;;;;;113.33;96.33;;;;;5.78;100.00;103090.34;4915391;28;49906;-68
2023/02/14 09:33:56;;;;;;;;;110.33;93.33;;;;;6.14;100.00;103154.88;4915254;28;49564;-71
2023/02/14 09:39:05;;;;;;;;;107.67;94.67;;;;;6.19;100.00;103153.53;4914341;28;49861;-70
2023/02/14 09:42:09;;;;;;;;;106.67;98.67;;;;;6.23;100.00;103141.63;4914906;28;50113;-70
2023/02/14 09:44:41;;;;;;;;;114.67;102.33;;;;;6.29;100.00;103143.00;4911286;28;49863;-70
2023/02/14 09:47:16;;;;;;;;;101.33;78.33;;;;;6.25;100.00;103127.00;4913320;28;51892;-70
2023/02/14 09:49:42;;;;;;;;;110.67;98.00;;;;;6.22;100.00;103112.03;4914844;28;49718;-70
2023/02/14 09:52:13;;;;;;;;;114.67;98.67;;;;;6.38;100.00;103136.69;4914569;28;50121;-70
2023/02/14 09:54:43;;;;;;;;;111.00;101.00;;;;;6.06;100.00;103061.19;4914792;28;49990;-70
2023/02/14 09:57:24;;;;;;;;;113.33;100.00;;;;;6.38;100.00;103107.97;4914754;28;51291;-70
2023/02/14 10:00:05;;;;;;;;;111.67;96.33;;;;;6.38;100.00;103092.34;4913343;28;49777;-69
2023/02/14 10:02:40;;;;;;;;;110.33;101.67;;;;;6.69;100.00;103145.09;4914272;28;49744;-70
2023/02/14 10:05:14;;;;;;;;;116.67;105.67;;;;;6.71;100.00;103140.91;4914706;28;49818;-69
2023/02/14 10:07:54;;;;;;;;;121.67;104.33;;;;;6.53;100.00;103089.13;4914115;28;50555;-70
2023/02/14 10:10:30;;;;;;;;;128.00;112.25;;;;;6.55;100.00;103087.53;4914708;28;49699;-70
2023/02/14 10:13:06;;;;;;;;;125.75;111.00;;;;;6.76;100.00;103110.84;4914340;28;49707;-69
2023/02/14 10:15:38;;;;;;;;;114.00;107.33;;;;;6.73;100.00;103085.38;4914443;28;49596;-70
2023/02/14 10:18:25;;;;;;;;;102.75;93.50;;;;;6.95;100.00;103110.44;4914093;28;50166;-70
2023/02/14 10:20:55;;;;;;;;;123.75;111.00;;;;;7.09;100.00;103131.56;4914122;28;49890;-70
2023/02/14 10:23:34;;;;;;;;;122.67;107.33;;;;;7.18;100.00;103129.63;4913826;28;50186;-70
2023/02/14 10:26:01;;;;;;;;;121.25;110.00;;;;;7.21;100.00;103120.16;4913301;28;49853;-69
2023/02/14 10:28:34;;;;;;;;;112.25;104.50;;;;;7.02;100.00;103076.16;4913901;28;50738;-70
2023/02/14 10:31:24;;;;;;;;;126.00;108.50;;;;;7.31;100.00;103120.94;4914340;28;49885;-70
2023/02/14 10:34:11;;;;;;;;;118.25;105.25;;;;;7.35;100.00;103099.47;4910926;28;49861;-70
2023/02/14 10:36:42;;;;;;;;;125.00;113.25;;;;;7.50;100.00;103117.03;4912685;28;49864;-70
2023/02/14 10:39:29;;;;;;;;;110.00;93.33;;;;;7.56;100.00;103115.75;4913219;28;50998;-70
2023/02/14 10:42:18;;;;;;;;;116.00;103.00;;;;;7.41;100.00;103065.91;4913911;28;49961;-71
2023/02/14 10:45:09;;;;;;;;;117.00;104.67;;;;;7.50;100.00;103059.53;4913896;28;49895;-70
2023/02/14 10:47:37;;;;;;;;;118.00;103.67;;;;;7.83;100.00;103101.09;4914137;28;50000;-72
2023/02/14 10:50:09;;;;;;;;;116.67;101.00;;;;;7.90;100.00;103099.78;4913704;28;50707;-71
2023/02/14 10:52:56;;;;;;;;;101.67;87.33;;;;;7.97;100.00;103104.66;4913415;28;50126;-70
2023/02/14 10:55:41;;;;;;;;;119.00;102.33;;;;;7.97;100.00;103087.25;4913673;28;49783;-71
2023/02/14 10:58:13;;;;;;;;;115.00;98.00;;;;;8.07;100.00;103082.63;4913989;28;49803;-71
2023/02/14 11:00:49;;;;;;;;;116.33;93.33;;;;;8.01;100.00;103077.91;4913474;28;49822;-70
2023/02/14 11:03:15;;;;;;;;;96.33;76.33;;;;;8.13;100.00;103065.66;4912412;28;50524;-70
2023/02/14 11:05:44;;;;;;;;;111.67;96.67;;;;;8.23;100.00;103082.88;4912963;28;49829;-71
2023/02/14 11:08:33;;;;;;;;;103.00;91.33;;;;;8.27;100.00;103063.94;4912473;28;49991;-71
2023/02/14 11:11:23;;;;;;;;;102.00;94.33;;;;;8.34;100.00;103066.19;4913295;28;51063;-70
2023/02/14 11:13:49;;;;;;;;;109.67;99.00;;;;;8.39;100.00;103046.47;4913543;28;50017;-70
2023/02/14 11:16:31;;;;;;;;;105.33;94.67;;;;;8.53;100.00;103064.00;4912061;28;49864;-73
2023/02/14 11:19:07;;;;;;;;;103.00;86.00;;;;;8.61;100.00;103061.91;4913686;28;49895;-70
2023/02/14 11:21:38;;;;;;;;;100.00;87.67;;;;;8.46;100.00;103019.00;4912620;28;49803;-70
2023/02/14 11:24:35;;;;;;;;;102.00;89.00;;;;;8.60;100.00;103013.88;4912988;28;49871;-70
2023/02/14 11:27:06;;;;;;;;;111.67;99.33;;;;;8.59;100.00;103000.69;4917883;28;49803;-68
2023/02/14 11:29:44;;;;;;;;;101.67;94.67;;;;;8.89;100.00;103043.63;4922633;28;49684;-69
2023/02/14 11:32:19;;;;;;;;;119.67;96.00;;;;;8.81;100.00;103014.31;4914585;28;51589;-68
2023/02/14 11:34:52;;;;;;;;;104.67;94.00;;;;;9.04;100.00;103043.69;4918953;28;49870;-69
2023/02/14 11:37:20;;;;;;;;;108.33;97.00;;;;;9.12;100.00;103030.25;4911516;28;50013;-73
2023/02/14 11:39:46;;;;;;;;;124.00;109.33;;;;;9.16;100.00;103024.38;4903119;28;50149;-70
2023/02/14 11:42:12;;;;;;;;;77.33;57.00;;;;;8.75;100.00;102931.84;4903579;28;49950;-73
2023/02/14 11:44:54;;;;;;;;;115.67;106.00;;;;;9.16;100.00;102979.84;4907027;28;49864;-72
2023/02/14 11:47:32;;;;;;;;;94.00;79.33;;;;;9.26;100.00;102986.56;4903970;28;49744;-71
2023/02/14 11:50:04;;;;;;;;;107.67;98.00;;;;;9.29;100.00;102978.00;4903580;28;49713;-70
2023/02/14 11:52:38;;;;;;;;;111.33;96.33;;;;;9.29;100.00;102965.78;4904549;28;49764;-72
2023/02/14 11:55:04;;;;;;;;;111.00;99.00;;;;;9.15;100.00;102932.59;4916301;28;50192;-73
2023/02/14 11:57:37;;;;;;;;;98.67;91.67;;;;;9.56;100.00;102987.53;4907899;28;49896;-74
2023/02/14 12:00:15;;;;;;;;;106.67;92.33;;;;;9.52;100.00;102968.91;4912806;28;49605;-74
2023/02/14 12:02:45;;;;;;;;;107.00;96.00;;;;;9.60;100.00;102963.31;4912740;28;49955;-70
2023/02/14 12:05:19;;;;;;;;;104.00;93.67;;;;;9.82;100.00;102989.06;4912863;28;49967;-70
2023/02/14 12:07:47;;;;;;;;;98.33;86.33;;;;;9.79;100.00;102970.53;4912762;28;49947;-69
2023/02/14 12:10:15;;;;;;;;;95.67;78.33;;;;;9.92;100.00;102978.31;4912931;28;49651;-69
2023/02/14 12:13:08;;;;;;;;;96.67;86.00;;;;;9.99;100.00;102977.84;4912560;28;49749;-70
2023/02/14 12:15:37;;;;;;;;;87.00;67.00;;;;;10.07;100.00;102969.53;4912581;28;49987;-69
2023/02/14 12:18:40;;;;;;;;;86.00;67.00;;;;;10.20;100.00;102959.81;4911759;28;49796;-70
2023/02/14 12:21:11;;;;;;;;;93.33;73.67;;;;;10.20;100.00;102940.53;4911471;28;49979;-71
2023/02/14 12:24:01;;;;;;;;;76.33;62.00;;;;;10.31;100.00;102958.75;4912130;28;49808;-70
2023/02/14 12:26:39;;;;;;;;;86.00;66.00;;;;;10.36;100.00;102939.72;4912397;28;49791;-67
2023/02/14 12:29:11;;;;;;;;;82.33;64.67;;;;;10.40;100.00;102939.06;4911268;28;49910;-68
2023/02/14 12:31:36;;;;;;;;;76.33;61.33;;;;;10.15;100.00;102881.66;4912627;28;49711;-68
2023/02/14 12:34:03;;;;;;;;;75.50;55.50;;;;;10.49;100.00;102934.34;4912317;28;51026;-68
2023/02/14 12:37:01;;;;;;;;;78.67;61.67;;;;;10.52;100.00;102913.53;4911020;28;49770;-68
2023/02/14 12:39:48;;;;;;;;;68.67;57.67;;;;;10.64;100.00;102922.06;4910322;28;49778;-68
2023/02/14 12:42:34;;;;;;;;;76.00;60.00;;;;;10.69;100.00;102923.19;4912746;28;49896;-68
2023/02/14 12:45:24;;;;;;;;;75.25;57.50;;;;;10.72;100.00;102914.63;4910706;28;51580;-68
2023/02/14 12:48:11;;;;;;;;;77.00;59.00;;;;;10.81;100.00;102908.13;4912229;28;49726;-68
2023/02/14 12:51:12;;;;;;;;;80.67;60.33;;;;;10.81;100.00;102894.09;4912269;28;49855;-69
2023/02/14 12:54:13;;;;;;;;;78.00;61.33;;;;;10.61;100.00;102840.44;4895553;28;50095;-69
2023/02/14 12:57:00;;;;;;;;;79.33;63.00;;;;;11.07;100.00;102896.34;4912218;28;51056;-68
2023/02/14 12:59:42;;;;;;;;;70.25;54.75;;;;;11.10;100.00;102890.38;4915030;28;49691;-69
2023/02/14 13:02:45;;;;;;;;;72.75;55.25;;;;;11.14;100.00;102890.59;4915413;28;49890;-68
2023/02/14 13:05:34;;;;;;;;;79.25;60.00;;;;;11.00;100.00;102860.09;4914503;28;50223;-68
2023/02/14 13:08:12;;;;;;;;;81.75;64.00;;;;;11.17;100.00;102876.72;4914772;28;49847;-68
2023/02/14 13:10:58;;;;;;;;;71.75;57.00;;;;;11.19;100.00;102872.44;4915336;28;49706;-68
2023/02/14 13:13:30;;;;;;;;;75.00;57.75;;;;;11.22;100.00;102869.97;4914226;28;49727;-68
2023/02/14 13:15:55;;;;;;;;;79.50;61.00;;;;;11.25;100.00;102867.50;4915278;28;49762;-68
2023/02/14 13:18:38;;;;;;;;;70.25;57.75;;;;;11.31;100.00;102873.09;4915217;28;49917;-68
2023/02/14 13:21:08;;;;;;;;;75.75;59.25;;;;;11.15;100.00;102834.56;4915181;28;49952;-68
2023/02/14 13:23:38;;;;;;;;;76.50;58.00;;;;;11.36;100.00;102861.06;4914879;28;50018;-68
2023/02/14 13:26:28;;;;;;;;;74.75;55.75;;;;;11.12;100.00;102812.50;4915306;28;49898;-68
2023/02/14 13:29:03;;;;;;;;;73.00;58.00;;;;;11.13;100.00;102814.31;4914925;28;51320;-68
2023/02/14 13:31:30;;;;;;;;;71.25;57.25;;;;;11.07;100.00;102785.06;4915063;28;49734;-68
2023/02/14 13:34:00;;;;;;;;;65.75;53.25;;;;;11.43;100.00;102836.88;4914953;28;49806;-68
2023/02/14 13:36:28;;;;;;;;;68.00;50.75;;;;;11.44;100.00;102822.00;4915075;28;49704;-71
2023/02/14 13:38:57;;;;;;;;;63.00;50.75;;;;;11.47;100.00;102823.03;4914285;28;49958;-70
2023/02/14 13:41:24;;;;;;;;;69.00;53.75;;;;;11.41;100.00;102808.72;4914936;28;49782;-71
2023/02/14 13:43:55;;;;;;;;;70.25;55.25;;;;;11.12;100.00;102739.81;4914870;28;49922;-70
2023/02/14 13:46:42;;;;;;;;;73.75;54.75;;;;;11.52;100.00;102807.50;4913837;28;49921;-70
2023/02/14 13:49:24;;;;;;;;;65.50;52.50;;;;;11.69;100.00;102827.66;4914336;28;49859;-71
2023/02/14 13:51:56;;;;;;;;;63.25;51.50;;;;;11.68;100.00;102822.34;4914250;28;49692;-70
2023/02/14 13:54:21;;;;;;;;;63.50;51.75;;;;;11.73;100.00;102824.34;4913447;28;49907;-70
2023/02/14 13:56:47;;;;;;;;;66.50;52.50;;;;;11.69;100.00;102803.97;4914948;28;49722;-70
2023/02/14 13:59:33;;;;;;;;;65.00;49.75;;;;;11.45;100.00;102750.16;4914165;28;50430;-70
2023/02/14 14:02:42;;;;;;;;;59.75;49.25;;;;;11.83;100.00;102809.94;4914567;28;49744;-71
2023/02/14 14:05:29;;;;;;;;;69.00;54.00;;;;;11.89;100.00;102801.44;4877145;29;49913;-70
2023/02/14 14:08:21;;;;;;;;;58.50;47.50;;;;;11.96;100.00;102796.53;4912603;28;50092;-70
2023/02/14 14:10:49;;;;;;;;;71.00;55.50;;;;;11.85;97.43;102775.78;4905480;28;49785;-70
2023/02/14 14:13:40;;;;;;;;;67.00;52.50;;;;;12.03;97.55;102800.34;4914471;28;49783;-69
2023/02/14 14:16:26;;;;;;;;;66.25;52.00;;;;;12.06;96.11;102794.31;4914342;28;49761;-69
2023/02/14 14:18:55;;;;;;;;;73.00;57.25;;;;;12.09;96.23;102791.84;4913430;28;50162;-69
2023/02/14 14:21:25;;;;;;;;;66.00;52.25;;;;;12.13;96.57;102789.44;4912951;28;51373;-69
2023/02/14 14:24:22;;;;;;;;;63.00;51.75;;;;;11.91;91.05;102744.50;4913971;28;49645;-69
2023/02/14 14:26:55;;;;;;;;;67.50;52.75;;;;;12.20;91.73;102785.34;4912904;28;49774;-69
2023/02/14 14:29:37;;;;;;;;;66.00;51.25;;;;;12.26;86.59;102786.56;4913229;28;49711;-69
2023/02/14 14:32:13;;;;;;;;;61.00;49.50;;;;;12.23;89.17;102786.38;4913898;28;50963;-69
2023/02/14 14:34:48;;;;;;;;;60.25;48.50;;;;;12.28;87.81;102771.72;4913809;28;49808;-70
2023/02/14 14:37:20;;;;;;;;;58.25;46.00;;;;;12.08;78.14;102735.66;4913814;28;49814;-70
2023/02/14 14:39:56;;;;;;;;;58.25;47.00;;;;;12.27;77.27;102769.91;4914003;28;49835;-69
2023/02/14 14:42:25;;;;;;;;;54.50;44.00;;;;;12.32;79.73;102762.22;4913858;28;49970;-69
2023/02/14 14:44:54;;;;;;;;;54.00;43.00;;;;;12.40;81.80;102783.63;4913852;28;50046;-69
2023/02/14 14:47:25;;;;;;;;;47.00;41.00;;;;;12.30;78.21;102755.97;4913948;28;49687;-69
2023/02/14 14:50:03;;;;;;;;;55.00;41.75;;;;;12.38;76.51;102766.88;4914110;28;49707;-70
2023/02/14 14:52:36;;;;;;;;;56.50;47.00;;;;;12.33;76.03;102753.47;4913003;28;49752;-70
2023/02/14 14:55:06;;;;;;;;;58.00;47.25;;;;;12.41;78.28;102761.72;4913587;28;49775;-69
2023/02/14 14:57:38;;;;;;;;;60.75;47.25;;;;;12.29;77.75;102743.66;4913948;28;49778;-69
2023/02/14 15:00:05;;;;;;;;;60.00;47.75;;;;;12.46;77.58;102757.59;4913845;28;49978;-70
2023/02/14 15:02:31;;;;;;;;;55.75;45.50;;;;;12.15;80.29;102713.13;4913705;28;49728;-70
2023/02/14 15:04:56;;;;;;;;;60.25;47.50;;;;;12.41;77.01;102767.88;4913808;28;49802;-69
2023/02/14 15:07:31;;;;;;;;;61.00;45.00;;;;;12.17;78.96;102725.56;4913569;28;50155;-69
2023/02/14 15:09:58;;;;;;;;;57.50;46.00;;;;;12.33;77.00;102749.09;4912395;28;49874;-69
2023/02/14 15:15:15;;;;;;;;;55.75;47.00;;;;;12.07;80.53;102718.06;4913339;28;49860;-69
2023/02/14 15:17:42;;;;;;;;;61.50;50.00;;;;;12.25;79.24;102741.69;4913688;28;49934;-70
2023/02/14 15:20:22;;;;;;;;;58.00;47.50;;;;;12.32;79.57;102754.31;4912406;28;49911;-70
2023/02/14 15:22:50;;;;;;;;;65.50;51.00;;;;;12.19;79.93;102734.44;4911802;28;50727;-70
2023/02/14 15:25:19;;;;;;;;;61.25;48.50;;;;;12.30;82.25;102758.63;4913342;28;49826;-69
2023/02/14 15:27:45;;;;;;;;;59.50;48.75;;;;;12.25;81.73;102749.59;4913438;28;49888;-69
2023/02/14 15:30:28;;;;;;;;;61.50;50.25;;;;;12.24;79.77;102753.06;4913464;28;49721;-70
2023/02/14 15:32:54;;;;;;;;;66.00;49.50;;;;;12.03;80.49;102709.13;4911783;28;51693;-70
2023/02/14 15:35:27;;;;;;;;;65.50;48.00;;;;;12.09;80.37;102715.50;4913051;28;49656;-69
2023/02/14 15:37:57;;;;;;;;;65.75;49.50;;;;;12.20;83.79;102730.97;4912999;28;49579;-69
2023/02/14 15:40:26;;;;;;;;;63.00;49.25;;;;;12.18;81.82;102744.91;4913154;28;50032;-69
2023/02/14 15:42:56;;;;;;;;;59.50;47.75;;;;;12.04;81.38;102712.66;4912692;28;50003;-69
2023/02/14 15:45:29;;;;;;;;;60.00;49.00;;;;;12.18;80.55;102737.91;4912817;28;50009;-70
2023/02/14 15:48:19;;;;;;;;;64.50;51.50;;;;;11.95;78.02;102693.81;4913139;28;49995;-69
2023/02/14 15:50:51;;;;;;;;;61.75;50.00;;;;;12.17;78.66;102733.47;4910342;28;49906;-69
2023/02/14 15:53:25;;;;;;;;;52.50;44.00;;;;;12.14;81.33;102725.41;4912583;28;51178;-69
2023/02/14 15:55:51;;;;;;;;;62.75;48.25;;;;;11.92;81.80;102693.66;4913028;28;49843;-71
2023/02/14 15:58:25;;;;;;;;;59.50;49.00;;;;;11.83;81.87;102686.25;4913081;28;49956;-71
2023/02/14 16:00:52;;;;;;;;;55.75;45.00;;;;;11.61;79.50;102657.13;4912452;28;49946;-70
2023/02/14 16:03:21;;;;;;;;;61.25;49.50;;;;;11.64;78.85;102652.00;4912886;28;50653;-71
2023/02/14 16:05:47;;;;;;;;;58.25;47.25;;;;;11.95;79.33;102699.97;4912819;28;49616;-76
2023/02/14 16:08:33;;;;;;;;;56.25;46.25;;;;;12.04;81.60;102710.91;4912438;28;49870;-70
2023/02/14 16:11:03;;;;;;;;;64.00;49.75;;;;;12.01;81.95;102715.16;4912878;28;49659;-67
2023/02/14 16:13:41;;;;;;;;;4.75;0.00;;;;;11.71;83.51;102656.72;4912921;28;49771;-68
2023/02/14 16:16:09;;;;;;;;;64.50;52.00;;;;;11.90;84.06;102700.59;4912495;28;49788;-67
2023/02/14 16:18:38;;;;;;;;;54.00;44.75;;;;;11.89;84.80;102683.00;4913001;28;49824;-68
2023/02/14 16:21:23;;;;;;;;;61.25;48.75;;;;;12.00;85.25;102700.19;4912840;28;49846;-66
2023/02/14 16:24:04;;;;;;;;;57.75;46.25;;;;;11.99;87.01;102701.94;4912014;28;49949;-65
2023/02/14 16:26:30;;;;;;;;;68.00;54.00;;;;;11.92;88.06;102702.47;4912643;28;49770;-66
2023/02/14 16:28:55;;;;;;;;;61.00;48.50;;;;;11.76;89.39;102692.00;4912596;28;49659;-67
2023/02/14 16:31:21;;;;;;;;;56.75;48.00;;;;;11.80;91.41;102707.16;4912748;28;50021;-66
2023/02/14 16:33:46;;;;;;;;;64.00;53.00;;;;;11.75;90.86;102695.47;4914065;28;50901;-65
2023/02/14 16:36:28;;;;;;;;;59.25;48.00;;;;;11.65;91.59;102693.25;4914733;28;49870;-66
2023/02/14 16:38:55;;;;;;;;;60.00;49.50;;;;;11.41;92.50;102641.31;4915269;28;49969;-66
2023/02/14 16:41:26;;;;;;;;;59.00;46.25;;;;;11.56;92.98;102682.28;4915811;28;49768;-65
2023/02/14 16:43:52;;;;;;;;;61.75;48.75;;;;;11.41;94.40;102658.81;4915486;28;50009;-67
2023/02/14 16:46:21;;;;;;;;;67.00;52.00;;;;;11.55;95.64;102696.28;4914183;28;49992;-66
2023/02/14 16:48:50;;;;;;;;;62.00;48.50;;;;;11.42;95.98;102690.44;4915740;28;49800;-67
2023/02/14 16:51:18;;;;;;;;;62.75;50.25;;;;;11.45;97.34;102695.84;4915871;28;49771;-66
2023/02/14 16:53:43;;;;;;;;;60.50;49.75;;;;;11.23;98.73;102669.34;4913821;28;49720;-66
2023/02/14 16:56:17;;;;;;;;;63.50;49.50;;;;;11.18;99.40;102670.84;4915610;28;49712;-69
2023/02/14 16:58:43;;;;;;;;;66.75;51.00;;;;;10.88;100.00;102626.47;4915462;28;49725;-66
2023/02/14 17:01:09;;;;;;;;;67.00;50.00;;;;;11.17;100.00;102705.84;4913680;28;49990;-66
2023/02/14 17:03:34;;;;;;;;;62.50;51.75;;;;;10.84;100.00;102648.16;4913006;28;50915;-65
2023/02/14 17:06:00;;;;;;;;;63.00;51.50;;;;;11.03;100.00;102693.75;4915311;28;50020;-66
2023/02/14 17:08:27;;;;;;;;;61.00;51.50;;;;;10.67;100.00;102630.66;4914280;28;49768;-69
2023/02/14 17:10:55;;;;;;;;;68.00;54.25;;;;;10.88;100.00;102676.38;4915380;28;49655;-66